Terminal Aerodrome Forecast
Issued by NWS

Home | Current Version | Previous Version | Text Only | Print | Product List | Glossary On
Versions: 1 2 3 4 5 6 7 8 9 10 11 12 13
000
FTUS42 KGSP 282320
TAFAND
TAF
KAND 282320Z 2900/2924 00000KT P6SM FEW250
     FM291500 20006KT P6SM SCT140
     FM292000 21009KT P6SM BKN110=

USA.gov is the U.S. government's official web portal to all federal, state and local government web resources and services.